Airfield :







YOU CAN JOIN US ON...

 
LOGIN :

Register | Disclaimer

   EN    FR    IT 

 









Legend :    VFR   Marginal VFR   IFR   Intensive IFR   Very Intensive IFR
Visi :
Ceiling :
>= 8 km
>= 3000ft
5 to 8 km
1000 to 3000 ft
1500m to 5 km
500 to 1000 ft
800 to 1500m
200 to 500 ft
< 800m
< 200 ft
Symbols :   Thunderstorms  Fog  Heavy snow  Heavy precipitations  Wind > 20 kt






- Airport Elevation : 108 ft
- IATA code : YAY


CYAY - St Anthony

CURRENT METAR :
  • 170520Z AUTO 27024G36KT 9SM SCT030 BKN035 OVC130 M02/M06 A2946 RMK ICG PRESRR SLP980

EXPIRED METARs :
  • 170500Z AUTO 26026G37KT 8SM -SN OVC032 M02/M06 A2944 RMK ICG INTMT SLP973
  • 170459Z AUTO 26026G37KT 8SM -SN OVC032 M02/M06 A2944 RMK ICG INTMT SLP972
  • 170449Z AUTO 26029G38KT 5SM -SN BKN032 OVC039 M02/M06 A2943 RMK ICG SLP970
  • 170441Z AUTO 26030G38KT 5SM -SN OVC032 M02/M06 A2942 RMK ICG INTMT SLP968
  • 170437Z AUTO 26028G36KT 5SM -SN OVC032 M02/M06 A2942 RMK ICG SLP968
  • 170422Z AUTO 27028G39KT 6SM -SN OVC032 M02/M06 A2941 RMK ICG INTMT PRESRR SLP963
  • 170400Z AUTO 27031G40KT 3SM -SN BKN032 M02/M06 A2938 RMK ICG PRESRR SLP953
  • 170356Z AUTO 27029G40KT 3SM -SN SCT032 M02/M06 A2938 RMK ICG PRESRR SLP952
  • 170327Z AUTO 27029G43KT 1 3/4SM -SN FEW033 M03/M06 A2935 RMK VIS VRB 3/4-3 ICG INTMT SLP943
  • 170308Z AUTO 27027G38KT 2 1/2SM -SN BKN033 M03/M06 A2935 RMK VIS VRB 1 1/4-3 ICG INTMT SLP943
  • 170253Z AUTO 27030G42KT 4SM -SN SCT031 BKN036 BKN230 M03/M06 A2935 RMK ICG SLP941
  • 170237Z AUTO 27028G40KT 5SM -SN BKN030 BKN038 M02/M06 A2934 RMK ICG SLP938

TAF AMD TAF CYAY
Valid from the 17 at 04:00 until the 17 at 14:00 UTC


170415Z 1704/1714 28030G45KT P6SM SCT025
TEMPO 1704/1706 2SM -SN BLSN BKN020
BECMG 1709/1711 28020G30KT RMK FCST BASED ON AUTO OBS. NXT FCST BY 170800Z



MET'MAP, your aeronautical weather chart ! - Copyright ORBIFLY December 2007 - Disclaimer

ORBIFLY MET'MAP TEAM :

Programming & Development : Alexandra Zaïnal
Concept & Development : Baudouin d'Aumeries
Co-Development & Prog : Marc-Olivier Méhu
Technical & hardware support : Manuel Goepfert

Contact : metmap@orbifly.com




SOURCES & CREDITS :

   NOAA